createdAt,value
2024-04-30T00:00:34.140Z,14.07
2024-04-30T00:04:38.798Z,14.03
2024-04-30T00:08:40.581Z,14.06
2024-04-30T00:12:42.381Z,14.02
2024-04-30T00:16:44.753Z,14.05
2024-04-30T00:20:49.144Z,14.06
2024-04-30T00:24:50.883Z,14.01
2024-04-30T00:28:52.885Z,14.01
2024-04-30T00:32:54.608Z,13.85
2024-04-30T00:36:58.991Z,13.84
2024-04-30T00:41:00.851Z,13.81
2024-04-30T00:45:03.005Z,13.84
2024-04-30T00:49:05.004Z,13.72
2024-04-30T00:53:09.534Z,13.64
2024-04-30T00:57:11.533Z,13.63
2024-04-30T01:01:13.777Z,13.59
2024-04-30T01:05:15.664Z,13.57
2024-04-30T01:09:20.151Z,13.52
2024-04-30T01:13:22.001Z,13.54
2024-04-30T01:17:23.937Z,13.43
2024-04-30T01:21:25.796Z,13.46
2024-04-30T01:25:30.430Z,13.39
2024-04-30T01:29:32.300Z,13.46
2024-04-30T01:33:34.093Z,13.34
2024-04-30T01:37:35.947Z,13.35
2024-04-30T01:41:43.606Z,13.32
2024-04-30T01:45:45.854Z,13.25
2024-04-30T01:49:48.963Z,13.11
2024-04-30T01:53:50.693Z,13.09
2024-04-30T01:57:55.018Z,13.02
2024-04-30T02:01:56.891Z,12.90
2024-04-30T02:05:58.779Z,13.00
2024-04-30T02:10:00.756Z,12.88
2024-04-30T02:14:05.058Z,12.89
2024-04-30T02:18:07.164Z,12.78
2024-04-30T02:22:08.948Z,12.66
2024-04-30T02:26:10.759Z,12.70
2024-04-30T02:30:15.204Z,12.56
2024-04-30T02:34:17.029Z,12.48
2024-04-30T02:38:18.871Z,12.44
2024-04-30T02:42:20.631Z,12.40
2024-04-30T02:46:25.137Z,12.39
2024-04-30T02:50:26.929Z,12.43
2024-04-30T02:54:28.889Z,12.39
2024-04-30T02:58:30.926Z,12.27
2024-04-30T03:02:35.557Z,12.27
2024-04-30T03:06:38.263Z,12.30
2024-04-30T03:10:40.086Z,12.27
2024-04-30T03:14:43.179Z,12.25
2024-04-30T03:18:47.525Z,12.16
2024-04-30T03:22:49.472Z,12.14
2024-04-30T03:26:51.255Z,12.16
2024-04-30T03:30:53.013Z,12.07
2024-04-30T03:34:57.387Z,12.04
2024-04-30T03:38:59.163Z,12.01
2024-04-30T03:43:01.011Z,12.01
2024-04-30T03:47:03.036Z,11.97
2024-04-30T03:51:07.519Z,11.90
2024-04-30T03:55:09.322Z,11.90
2024-04-30T03:59:11.315Z,11.92
2024-04-30T04:03:13.260Z,11.87
2024-04-30T04:07:18.122Z,11.79
2024-04-30T04:11:20.128Z,11.80
2024-04-30T04:15:21.866Z,11.79
2024-04-30T04:19:23.659Z,11.79
2024-04-30T04:23:28.149Z,11.84
2024-04-30T04:27:29.985Z,11.93
2024-04-30T04:31:31.883Z,11.95
2024-04-30T04:35:33.725Z,11.99
2024-04-30T04:39:38.119Z,11.97
2024-04-30T04:43:39.927Z,12.10
2024-04-30T04:47:42.746Z,12.10
2024-04-30T04:51:44.495Z,12.09
2024-04-30T04:55:49.090Z,12.37
2024-04-30T04:59:51.131Z,12.36
2024-04-30T05:03:52.962Z,12.34
2024-04-30T05:07:54.771Z,12.31
2024-04-30T05:11:59.335Z,12.37
2024-04-30T05:16:01.227Z,12.43
2024-04-30T05:20:03.252Z,12.55
2024-04-30T05:24:05.556Z,12.58
2024-04-30T05:28:10.134Z,12.68
2024-04-30T05:32:11.982Z,12.81
2024-04-30T05:36:13.941Z,12.82
2024-04-30T05:40:15.817Z,12.86
2024-04-30T05:44:22.612Z,12.95
2024-04-30T05:48:24.824Z,13.16
2024-04-30T05:52:26.651Z,13.27
2024-04-30T05:56:28.462Z,13.43
2024-04-30T06:00:33.101Z,13.65
2024-04-30T06:04:35.407Z,13.73
2024-04-30T06:08:40.990Z,13.90
2024-04-30T06:12:43.411Z,13.86
2024-04-30T06:16:47.711Z,13.76
2024-04-30T06:20:49.455Z,13.87
2024-04-30T06:24:51.483Z,13.88
2024-04-30T06:28:53.345Z,14.12
2024-04-30T06:32:58.042Z,14.13
2024-04-30T06:36:59.851Z,14.10
2024-04-30T06:41:01.722Z,14.02
2024-04-30T06:45:03.779Z,15.38
2024-04-30T06:49:08.213Z,17.22
2024-04-30T06:53:10.050Z,17.89
2024-04-30T06:57:11.901Z,20.68
2024-04-30T07:01:13.667Z,22.40
2024-04-30T07:05:18.504Z,22.72
2024-04-30T07:09:20.319Z,23.17
2024-04-30T07:13:22.116Z,21.11
2024-04-30T07:17:24.022Z,21.12
2024-04-30T07:21:28.446Z,23.36
2024-04-30T07:25:30.258Z,24.08
2024-04-30T07:29:32.006Z,24.52
2024-04-30T07:33:33.914Z,22.80
2024-04-30T07:37:38.522Z,21.91
2024-04-30T07:41:40.441Z,20.55
2024-04-30T07:45:42.263Z,21.05
2024-04-30T07:49:44.335Z,21.42
2024-04-30T07:53:48.719Z,22.14
2024-04-30T07:57:51.290Z,22.80
2024-04-30T08:01:53.136Z,23.16
2024-04-30T08:05:56.382Z,23.00
2024-04-30T08:10:03.381Z,24.46
2024-04-30T08:14:06.136Z,26.67
2024-04-30T08:18:07.930Z,27.08
2024-04-30T08:22:09.810Z,27.97
2024-04-30T08:26:14.233Z,28.43
2024-04-30T08:30:16.082Z,26.95
2024-04-30T08:34:18.565Z,24.80
2024-04-30T08:38:20.447Z,24.03
2024-04-30T08:42:25.083Z,24.21
2024-04-30T08:46:30.018Z,24.55
2024-04-30T08:50:33.420Z,24.16
2024-04-30T08:54:37.040Z,24.62
2024-04-30T08:58:42.190Z,27.17
2024-04-30T09:02:52.308Z,28.56
2024-04-30T09:06:55.290Z,29.52
2024-04-30T09:10:57.204Z,30.51
2024-04-30T09:15:01.621Z,29.40
2024-04-30T09:19:03.658Z,27.39
2024-04-30T09:23:05.519Z,27.92
2024-04-30T09:27:07.312Z,27.15
2024-04-30T09:31:11.714Z,28.36
2024-04-30T09:35:24.128Z,28.27
2024-04-30T09:39:26.715Z,29.07
2024-04-30T09:43:29.232Z,30.63
2024-04-30T09:47:36.277Z,31.59
2024-04-30T09:51:40.471Z,32.19
2024-04-30T09:55:43.900Z,32.04
2024-04-30T09:59:45.803Z,32.74
2024-04-30T10:03:52.020Z,31.29
2024-04-30T10:07:55.518Z,31.56
2024-04-30T10:11:57.350Z,31.82
2024-04-30T10:15:59.342Z,31.90
2024-04-30T10:20:04.108Z,30.12
2024-04-30T10:24:16.876Z,28.28
2024-04-30T10:28:19.866Z,27.13
2024-04-30T10:32:22.256Z,26.67
2024-04-30T10:36:26.749Z,26.96
2024-04-30T10:40:28.842Z,27.45
2024-04-30T10:44:41.306Z,26.84
2024-04-30T10:48:50.395Z,28.51
2024-04-30T10:52:55.148Z,30.68
2024-04-30T10:56:56.983Z,31.28
2024-04-30T11:00:59.461Z,30.06
2024-04-30T11:05:12.139Z,30.76
